createdAt,value
2019-01-27T00:02:04.381Z,7.40
2019-01-27T00:04:07.287Z,7.40
2019-01-27T00:06:10.398Z,7.40
2019-01-27T00:08:14.045Z,7.40
2019-01-27T00:10:17.340Z,7.40
2019-01-27T00:12:20.229Z,7.40
2019-01-27T00:14:23.228Z,7.40
2019-01-27T00:16:27.634Z,7.40
2019-01-27T00:18:30.519Z,7.40
2019-01-27T00:20:33.857Z,7.40
2019-01-27T00:22:36.744Z,7.40
2019-01-27T00:24:39.618Z,7.40
2019-01-27T00:26:42.538Z,7.40
2019-01-27T00:28:45.435Z,7.50
2019-01-27T00:30:48.314Z,7.40
2019-01-27T00:32:51.195Z,7.50
2019-01-27T00:34:54.183Z,7.50
2019-01-27T00:36:57.172Z,7.50
2019-01-27T00:39:00.054Z,7.50
2019-01-27T00:41:02.954Z,7.50
2019-01-27T00:43:06.591Z,7.50
2019-01-27T00:45:10.241Z,7.50
2019-01-27T00:47:13.907Z,7.50
2019-01-27T00:49:17.532Z,7.50
2019-01-27T00:51:22.057Z,7.50
2019-01-27T00:53:25.699Z,7.50
2019-01-27T00:55:28.579Z,7.50
2019-01-27T00:57:31.534Z,7.50
2019-01-27T00:59:36.156Z,7.40
2019-01-27T01:01:39.827Z,7.40
2019-01-27T01:03:42.737Z,7.40
2019-01-27T01:05:46.379Z,7.50
2019-01-27T01:07:49.251Z,7.40
2019-01-27T01:09:52.226Z,7.40
2019-01-27T01:11:55.109Z,7.40
2019-01-27T01:13:57.999Z,7.40
2019-01-27T01:16:01.354Z,7.40
2019-01-27T01:18:05.023Z,7.40
2019-01-27T01:20:13.387Z,7.40
2019-01-27T01:22:16.444Z,7.40
2019-01-27T01:24:20.514Z,7.40
2019-01-27T01:26:23.383Z,7.40
2019-01-27T01:28:26.299Z,7.50
2019-01-27T01:30:29.950Z,7.40
2019-01-27T01:32:32.872Z,7.40
2019-01-27T01:34:36.938Z,7.40
2019-01-27T01:36:39.818Z,7.40
2019-01-27T01:38:42.715Z,7.40
2019-01-27T01:40:45.620Z,7.40
2019-01-27T01:42:48.511Z,7.40
2019-01-27T01:44:52.690Z,7.40
2019-01-27T01:46:55.675Z,7.40
2019-01-27T01:48:58.552Z,7.40
2019-01-27T01:51:01.817Z,7.40
2019-01-27T01:53:04.691Z,7.40
2019-01-27T01:55:07.641Z,7.40
2019-01-27T01:57:10.536Z,7.40
2019-01-27T01:59:14.174Z,7.40
2019-01-27T02:01:17.054Z,7.40
2019-01-27T02:03:20.678Z,7.40
2019-01-27T02:05:23.550Z,7.40
2019-01-27T02:07:26.426Z,7.40
2019-01-27T02:09:29.335Z,7.40
2019-01-27T02:11:32.306Z,7.40
2019-01-27T02:13:35.208Z,7.40
2019-01-27T02:15:54.564Z,7.40
2019-01-27T02:17:58.263Z,7.40
2019-01-27T02:20:01.233Z,7.40
2019-01-27T02:22:04.111Z,7.40
2019-01-27T02:24:07.034Z,7.40
2019-01-27T02:26:10.691Z,7.40
2019-01-27T02:28:13.583Z,7.40
2019-01-27T02:30:17.244Z,7.40
2019-01-27T02:32:20.163Z,7.40
2019-01-27T02:34:23.043Z,7.40
2019-01-27T02:36:25.927Z,7.40
2019-01-27T02:38:29.600Z,7.50
2019-01-27T02:40:32.935Z,7.40
2019-01-27T02:42:37.083Z,7.40
2019-01-27T02:44:40.939Z,7.40
2019-01-27T02:46:43.914Z,7.50
2019-01-27T02:48:47.562Z,7.50
2019-01-27T02:50:50.488Z,7.50
2019-01-27T02:52:53.363Z,7.50
2019-01-27T02:54:56.246Z,7.50
2019-01-27T02:56:59.372Z,7.50
2019-01-27T02:59:03.753Z,7.50
2019-01-27T03:01:06.636Z,7.50
2019-01-27T03:03:09.927Z,7.50
2019-01-27T03:05:18.379Z,7.50
2019-01-27T03:07:21.250Z,7.50
2019-01-27T03:09:25.324Z,7.50
2019-01-27T03:11:28.385Z,7.50
2019-01-27T03:13:31.296Z,7.50
2019-01-27T03:15:34.964Z,7.60
2019-01-27T03:17:37.885Z,7.50
2019-01-27T03:19:40.763Z,7.60
2019-01-27T03:21:44.243Z,7.60
2019-01-27T03:23:48.641Z,7.50
2019-01-27T03:25:52.326Z,7.60
2019-01-27T03:27:55.378Z,7.60
2019-01-27T03:29:59.024Z,7.60
2019-01-27T03:32:01.920Z,7.60
2019-01-27T03:34:04.803Z,7.60
2019-01-27T03:36:07.735Z,7.60
2019-01-27T03:38:10.614Z,7.70
2019-01-27T03:40:14.330Z,7.70
2019-01-27T03:42:17.939Z,7.70
2019-01-27T03:44:20.855Z,7.70
2019-01-27T03:46:23.793Z,7.70
2019-01-27T03:48:26.696Z,7.70
2019-01-27T03:50:30.181Z,7.70
2019-01-27T03:52:33.106Z,7.70
2019-01-27T03:54:36.083Z,7.70
2019-01-27T03:56:39.777Z,7.70
2019-01-27T03:58:42.760Z,7.70
2019-01-27T04:00:45.636Z,7.80
2019-01-27T04:02:48.617Z,7.70
2019-01-27T04:04:52.521Z,7.70
2019-01-27T04:06:57.646Z,7.80
2019-01-27T04:09:01.328Z,7.70
2019-01-27T04:11:04.229Z,7.80
2019-01-27T04:13:07.115Z,7.80
2019-01-27T04:15:11.497Z,7.70
2019-01-27T04:17:14.410Z,7.70
2019-01-27T04:19:17.299Z,7.70
2019-01-27T04:21:20.998Z,7.70
2019-01-27T04:23:23.851Z,7.70
2019-01-27T04:25:26.728Z,7.70
2019-01-27T04:27:29.598Z,7.70
2019-01-27T04:29:32.523Z,7.70
2019-01-27T04:31:35.402Z,7.70
2019-01-27T04:33:39.055Z,7.70
2019-01-27T04:35:41.962Z,7.60
2019-01-27T04:37:44.860Z,7.60
2019-01-27T04:39:47.738Z,7.60
2019-01-27T04:41:50.863Z,7.60
2019-01-27T04:43:56.436Z,7.60
2019-01-27T04:45:58.947Z,7.60
2019-01-27T04:48:02.032Z,7.60
2019-01-27T04:50:05.705Z,7.60
2019-01-27T04:52:08.575Z,7.60
2019-01-27T04:54:12.003Z,7.60
2019-01-27T04:56:14.873Z,7.60
2019-01-27T04:58:17.770Z,7.60
2019-01-27T05:00:22.518Z,7.60
2019-01-27T05:02:26.144Z,7.60
2019-01-27T05:04:29.651Z,7.60
2019-01-27T05:06:32.550Z,7.60
2019-01-27T05:08:35.427Z,7.60
2019-01-27T05:10:38.337Z,7.60
2019-01-27T05:12:41.219Z,7.60
2019-01-27T05:14:44.978Z,7.50
2019-01-27T05:16:47.884Z,7.60
2019-01-27T05:18:50.884Z,7.60
2019-01-27T05:20:54.532Z,7.60
2019-01-27T05:22:57.459Z,7.60
2019-01-27T05:25:00.542Z,7.60
2019-01-27T05:27:03.830Z,7.50
2019-01-27T05:29:08.004Z,7.60
2019-01-27T05:31:11.745Z,7.60
2019-01-27T05:33:14.619Z,7.60
2019-01-27T05:35:17.504Z,7.60
2019-01-27T05:37:20.583Z,7.50
2019-01-27T05:39:23.584Z,7.60
2019-01-27T05:41:27.229Z,7.50
2019-01-27T05:43:30.151Z,7.50
2019-01-27T05:45:33.022Z,7.50
2019-01-27T05:47:35.907Z,7.50
2019-01-27T05:49:38.807Z,7.50
2019-01-27T05:51:42.861Z,7.50
2019-01-27T05:53:45.735Z,7.50
2019-01-27T05:55:48.866Z,7.50
2019-01-27T05:57:51.838Z,7.50
2019-01-27T05:59:54.722Z,7.50
2019-01-27T06:01:57.619Z,7.50
2019-01-27T06:04:02.140Z,7.50
2019-01-27T06:06:05.857Z,7.60
2019-01-27T06:08:08.805Z,7.50
2019-01-27T06:10:12.479Z,7.50
2019-01-27T06:12:25.248Z,7.50
2019-01-27T06:17:21.932Z,7.50
2019-01-27T06:27:20.816Z,7.50
2019-01-27T06:37:24.853Z,6.90
2019-01-27T06:39:36.543Z,6.90
2019-01-27T06:47:21.595Z,6.80
2019-01-27T06:57:20.516Z,6.80
2019-01-27T07:07:28.387Z,6.80
2019-01-27T07:17:28.634Z,6.70
2019-01-27T07:19:48.198Z,6.80
2019-01-27T07:22:11.340Z,6.90
2019-01-27T07:24:29.943Z,6.90
2019-01-27T07:26:37.121Z,7.00
2019-01-27T07:28:40.730Z,7.10
2019-01-27T07:30:47.291Z,7.10
2019-01-27T07:32:55.798Z,7.20
2019-01-27T07:35:11.134Z,7.20
2019-01-27T07:37:31.707Z,7.20
2019-01-27T07:39:34.579Z,7.30
2019-01-27T07:41:37.854Z,7.30
2019-01-27T07:43:44.664Z,7.40
2019-01-27T07:45:54.167Z,7.50
2019-01-27T07:48:14.168Z,7.50
2019-01-27T07:50:27.698Z,7.50
2019-01-27T07:52:37.615Z,7.50
2019-01-27T07:54:42.527Z,7.50
2019-01-27T07:56:47.000Z,7.60
2019-01-27T07:58:58.545Z,7.60
2019-01-27T08:01:02.125Z,7.60
2019-01-27T08:03:12.239Z,7.70
2019-01-27T08:05:15.780Z,7.70
2019-01-27T08:07:20.448Z,7.70
2019-01-27T08:09:29.221Z,7.70
2019-01-27T08:11:33.555Z,7.70
2019-01-27T08:13:53.347Z,7.70
2019-01-27T08:15:56.335Z,7.70
2019-01-27T08:18:05.072Z,7.80
2019-01-27T08:20:09.620Z,7.80
2019-01-27T08:22:21.175Z,7.80
2019-01-27T08:24:26.619Z,7.80
2019-01-27T08:26:29.503Z,7.90
2019-01-27T08:28:33.936Z,7.90
2019-01-27T08:30:39.289Z,7.90
2019-01-27T08:32:43.659Z,7.90
2019-01-27T08:34:50.134Z,8.00
2019-01-27T08:36:54.398Z,8.00
2019-01-27T08:39:12.071Z,8.00
2019-01-27T08:41:16.600Z,8.10
2019-01-27T08:43:21.915Z,8.00
2019-01-27T08:45:27.372Z,8.00
2019-01-27T08:47:30.479Z,8.10
2019-01-27T08:49:34.164Z,8.10
2019-01-27T08:51:37.053Z,8.10
2019-01-27T08:53:41.147Z,8.10
2019-01-27T08:55:44.174Z,8.10
2019-01-27T08:57:47.835Z,8.20
2019-01-27T08:59:51.049Z,8.20
2019-01-27T09:02:09.572Z,8.20
2019-01-27T09:04:14.093Z,8.20
2019-01-27T09:06:22.054Z,8.20
2019-01-27T09:08:40.723Z,8.20
2019-01-27T09:10:44.442Z,8.20
2019-01-27T09:12:48.975Z,8.30
2019-01-27T09:14:59.243Z,8.20
2019-01-27T09:17:07.700Z,8.20
2019-01-27T09:19:13.660Z,8.30
2019-01-27T09:21:17.507Z,8.30
2019-01-27T09:23:23.839Z,8.30
2019-01-27T09:25:30.011Z,8.30
2019-01-27T09:27:36.612Z,8.30
2019-01-27T09:29:40.456Z,8.30
2019-01-27T09:31:59.073Z,8.30
2019-01-27T09:34:13.551Z,8.30
2019-01-27T09:36:18.894Z,8.30
2019-01-27T09:38:27.730Z,8.30
2019-01-27T09:40:31.029Z,8.40
2019-01-27T09:42:40.353Z,8.40
2019-01-27T09:44:59.023Z,8.40
2019-01-27T09:47:02.667Z,8.40
2019-01-27T09:49:06.436Z,8.40
2019-01-27T09:51:14.696Z,8.40
2019-01-27T09:53:20.195Z,8.40
2019-01-27T09:55:25.474Z,8.40
2019-01-27T09:57:33.394Z,8.40
2019-01-27T09:59:36.459Z,8.50
2019-01-27T10:01:40.947Z,8.40
2019-01-27T10:03:44.636Z,8.50
2019-01-27T10:05:47.530Z,8.50
2019-01-27T10:08:08.075Z,8.50
2019-01-27T10:10:26.714Z,8.60
2019-01-27T10:12:29.631Z,8.60
2019-01-27T10:14:48.181Z,8.60
2019-01-27T10:16:54.347Z,8.60
2019-01-27T10:19:13.859Z,8.60
2019-01-27T10:21:22.236Z,8.60
2019-01-27T10:23:27.209Z,8.70
2019-01-27T10:25:32.676Z,8.60
2019-01-27T10:27:51.208Z,8.70
2019-01-27T10:29:57.058Z,8.60
2019-01-27T10:32:01.466Z,8.70
2019-01-27T10:34:08.336Z,8.70
2019-01-27T10:36:15.494Z,8.70
2019-01-27T10:38:34.209Z,8.70
2019-01-27T10:40:39.931Z,8.70
2019-01-27T10:42:57.073Z,8.70
2019-01-27T10:45:10.628Z,8.80
2019-01-27T10:47:19.344Z,8.70
2019-01-27T10:49:22.998Z,8.80
2019-01-27T10:51:43.801Z,8.80
2019-01-27T10:53:50.151Z,8.80
2019-01-27T10:55:55.668Z,8.80
2019-01-27T10:58:03.354Z,8.80
2019-01-27T11:00:10.431Z,8.80
2019-01-27T11:02:13.414Z,8.80
2019-01-27T11:04:16.329Z,8.80
2019-01-27T11:06:29.116Z,8.90
2019-01-27T11:08:32.056Z,9.00
2019-01-27T11:10:35.707Z,9.10
2019-01-27T11:12:43.152Z,9.00
2019-01-27T11:14:52.027Z,9.10
2019-01-27T11:16:55.700Z,9.10
2019-01-27T11:19:13.253Z,9.10
2019-01-27T11:21:33.882Z,9.20
2019-01-27T11:23:55.204Z,9.20
2019-01-27T11:26:00.682Z,9.10
2019-01-27T11:28:03.786Z,9.20
2019-01-27T11:30:09.606Z,9.20
2019-01-27T11:32:12.472Z,9.10
2019-01-27T11:34:31.189Z,9.20
2019-01-27T11:36:39.879Z,9.10
2019-01-27T11:39:02.610Z,9.10
2019-01-27T11:41:09.504Z,9.20
2019-01-27T11:43:12.392Z,9.10
2019-01-27T11:45:18.959Z,9.10
2019-01-27T11:47:24.904Z,9.10
2019-01-27T11:49:28.155Z,9.10
2019-01-27T11:51:31.028Z,9.10
2019-01-27T11:53:33.980Z,9.10
2019-01-27T11:55:37.621Z,9.10
2019-01-27T11:57:40.506Z,9.10
2019-01-27T11:59:43.416Z,9.10
2019-01-27T12:01:46.404Z,9.10
2019-01-27T12:03:49.284Z,9.10
2019-01-27T12:05:52.196Z,9.10
2019-01-27T12:07:55.089Z,9.10
2019-01-27T12:09:57.975Z,9.10
2019-01-27T12:12:01.684Z,9.10
2019-01-27T12:14:04.602Z,9.10
2019-01-27T12:16:07.494Z,9.10
2019-01-27T12:18:11.146Z,9.10
2019-01-27T12:20:14.071Z,9.10
2019-01-27T12:22:16.985Z,9.10
2019-01-27T12:24:19.918Z,9.10
2019-01-27T12:26:22.813Z,9.10
2019-01-27T12:28:25.699Z,9.10
2019-01-27T12:30:29.375Z,9.10
2019-01-27T12:32:32.262Z,9.10
2019-01-27T12:34:35.962Z,9.10
2019-01-27T12:36:38.982Z,9.10
2019-01-27T12:38:42.660Z,9.10
2019-01-27T12:40:45.547Z,9.10
2019-01-27T12:42:48.491Z,9.10
2019-01-27T12:44:51.419Z,9.10
2019-01-27T12:46:54.310Z,9.10
2019-01-27T12:48:57.924Z,9.10
2019-01-27T12:51:00.939Z,9.10
2019-01-27T12:53:03.847Z,9.10
2019-01-27T12:55:06.765Z,9.10
2019-01-27T12:57:09.674Z,9.10
2019-01-27T12:59:12.569Z,9.10
2019-01-27T13:01:15.907Z,9.20
2019-01-27T13:03:19.573Z,9.20
2019-01-27T13:05:22.487Z,9.10
2019-01-27T13:07:25.588Z,9.20
2019-01-27T13:09:29.111Z,9.10
2019-01-27T13:11:32.782Z,9.10
2019-01-27T13:13:36.937Z,9.10
2019-01-27T13:15:39.711Z,9.10
2019-01-27T13:17:42.591Z,9.10
2019-01-27T13:19:45.579Z,9.10
2019-01-27T13:21:48.463Z,9.10
2019-01-27T13:23:51.335Z,9.10
2019-01-27T13:25:54.245Z,9.10
2019-01-27T13:27:57.159Z,9.10
2019-01-27T13:30:00.783Z,9.10
2019-01-27T13:32:03.771Z,9.10
2019-01-27T13:34:07.491Z,9.10
2019-01-27T13:36:10.385Z,9.10
2019-01-27T13:38:13.292Z,9.10
2019-01-27T13:40:21.750Z,9.10
2019-01-27T13:42:24.638Z,9.10
2019-01-27T13:44:27.559Z,9.10
2019-01-27T13:46:30.604Z,9.10
2019-01-27T13:48:34.629Z,9.10
2019-01-27T13:50:37.904Z,9.10
2019-01-27T13:52:40.796Z,9.10
2019-01-27T13:54:43.723Z,9.10
2019-01-27T13:56:47.469Z,9.10
2019-01-27T13:58:50.355Z,9.10
2019-01-27T14:00:53.246Z,9.10
2019-01-27T14:02:56.151Z,9.10
2019-01-27T14:05:00.576Z,9.10
2019-01-27T14:07:04.243Z,9.10
2019-01-27T14:09:07.260Z,9.10
2019-01-27T14:11:10.892Z,9.10
2019-01-27T14:13:15.112Z,9.10
2019-01-27T14:15:17.116Z,9.10
2019-01-27T14:17:20.763Z,9.10
2019-01-27T14:19:23.849Z,9.10
2019-01-27T14:21:26.798Z,9.10
2019-01-27T14:23:30.739Z,9.10
2019-01-27T14:25:33.630Z,9.10
2019-01-27T14:27:36.547Z,9.10
2019-01-27T14:29:39.958Z,9.20
2019-01-27T14:31:43.591Z,9.20
2019-01-27T14:33:46.494Z,9.10
2019-01-27T14:35:50.169Z,9.20
2019-01-27T14:37:53.119Z,9.20
2019-01-27T14:39:57.228Z,9.20
2019-01-27T14:42:00.869Z,9.20
2019-01-27T14:44:03.730Z,9.20
2019-01-27T14:46:06.658Z,9.20
2019-01-27T14:48:09.538Z,9.20
2019-01-27T14:50:12.423Z,9.30
2019-01-27T14:52:16.419Z,9.30
2019-01-27T14:54:19.312Z,9.20
2019-01-27T14:56:22.955Z,9.30
2019-01-27T14:58:25.936Z,9.30
2019-01-27T15:00:36.331Z,9.30
2019-01-27T15:02:36.008Z,9.30
2019-01-27T15:04:39.358Z,9.30
2019-01-27T15:06:42.314Z,9.30
2019-01-27T15:08:46.015Z,9.30
2019-01-27T15:10:48.345Z,9.30
2019-01-27T15:12:51.214Z,9.30
2019-01-27T15:14:54.095Z,9.30
2019-01-27T15:16:57.079Z,9.30
2019-01-27T15:19:00.972Z,9.30
2019-01-27T15:21:04.831Z,9.30
2019-01-27T15:23:07.788Z,9.30
2019-01-27T15:25:10.650Z,9.40
2019-01-27T15:27:13.552Z,9.40
2019-01-27T15:29:16.709Z,9.40
2019-01-27T15:31:20.377Z,9.40
2019-01-27T15:33:23.264Z,9.30
2019-01-27T15:35:26.270Z,9.40
2019-01-27T15:37:29.901Z,9.40
2019-01-27T15:39:32.817Z,9.40
2019-01-27T15:41:36.255Z,9.40
2019-01-27T15:43:39.143Z,9.30
2019-01-27T15:45:42.095Z,9.40
2019-01-27T15:47:45.764Z,9.40
2019-01-27T15:49:49.351Z,9.30
2019-01-27T15:51:52.295Z,9.40
2019-01-27T15:53:55.198Z,9.40
2019-01-27T15:55:58.601Z,9.40
2019-01-27T15:58:01.737Z,9.40
2019-01-27T16:00:08.392Z,9.40
2019-01-27T16:02:11.259Z,9.40
2019-01-27T16:04:14.163Z,9.40
2019-01-27T16:06:17.829Z,9.40
2019-01-27T16:08:20.716Z,9.30
2019-01-27T16:10:23.605Z,9.40
2019-01-27T16:12:26.499Z,9.40
2019-01-27T16:14:29.411Z,9.40
2019-01-27T16:16:33.074Z,9.40
2019-01-27T16:18:36.358Z,9.30
2019-01-27T16:20:40.171Z,9.40
2019-01-27T16:22:44.509Z,9.40
2019-01-27T16:24:49.199Z,9.40
2019-01-27T16:26:52.867Z,9.40
2019-01-27T16:28:56.047Z,9.30
2019-01-27T16:31:01.663Z,9.40
2019-01-27T16:33:07.219Z,9.40
2019-01-27T16:35:10.219Z,9.30
2019-01-27T16:37:13.125Z,9.30
2019-01-27T16:39:16.016Z,9.30
2019-01-27T16:41:18.896Z,9.30
2019-01-27T16:43:22.121Z,9.30
2019-01-27T16:45:25.012Z,9.30
2019-01-27T16:47:27.897Z,9.30
2019-01-27T16:49:30.895Z,9.30
2019-01-27T16:51:34.719Z,9.30
2019-01-27T16:53:37.616Z,9.30
2019-01-27T16:55:40.698Z,9.30
2019-01-27T16:57:43.701Z,9.30
2019-01-27T16:59:47.007Z,9.30
2019-01-27T17:01:50.741Z,9.30
2019-01-27T17:03:54.271Z,9.30
2019-01-27T17:05:57.148Z,9.30
2019-01-27T17:08:00.048Z,9.30
2019-01-27T17:10:03.700Z,9.30
2019-01-27T17:12:06.598Z,9.30
2019-01-27T17:14:09.595Z,9.30
2019-01-27T17:16:12.495Z,9.30
2019-01-27T17:18:16.154Z,9.30
2019-01-27T17:20:19.143Z,9.30
2019-01-27T17:22:23.453Z,9.30
2019-01-27T17:24:25.712Z,9.30
2019-01-27T17:26:28.685Z,9.30
2019-01-27T17:28:31.615Z,9.30
2019-01-27T17:30:34.709Z,9.30
2019-01-27T17:32:37.627Z,9.30
2019-01-27T17:34:40.840Z,9.30
2019-01-27T17:36:44.451Z,9.30
2019-01-27T17:38:47.346Z,9.30
2019-01-27T17:40:51.390Z,9.30
2019-01-27T17:42:54.279Z,9.30
2019-01-27T17:44:57.208Z,9.30
2019-01-27T17:47:00.079Z,9.30
2019-01-27T17:49:02.965Z,9.30
2019-01-27T17:51:05.889Z,9.30
2019-01-27T17:53:08.797Z,9.30
2019-01-27T17:55:14.259Z,9.30
2019-01-27T17:57:17.174Z,9.30
2019-01-27T17:59:21.615Z,9.20
2019-01-27T18:01:39.439Z,9.20
2019-01-27T18:03:49.588Z,9.20
2019-01-27T18:05:59.000Z,9.20
2019-01-27T18:08:01.896Z,9.20
2019-01-27T18:10:04.899Z,9.20
2019-01-27T18:12:08.803Z,9.20
2019-01-27T18:14:11.683Z,9.20
2019-01-27T18:16:14.598Z,9.20
2019-01-27T18:18:17.571Z,9.20
2019-01-27T18:20:20.527Z,9.20
2019-01-27T18:22:23.446Z,9.20
2019-01-27T18:24:26.316Z,9.20
2019-01-27T18:26:29.244Z,9.10
2019-01-27T18:28:32.915Z,9.10
2019-01-27T18:30:35.932Z,9.10
2019-01-27T18:32:39.580Z,9.10
2019-01-27T18:34:42.801Z,9.10
2019-01-27T18:36:45.684Z,9.10
2019-01-27T18:38:48.559Z,9.00
2019-01-27T18:40:51.648Z,9.00
2019-01-27T18:42:54.521Z,9.00
2019-01-27T18:44:57.403Z,8.90
2019-01-27T18:47:00.509Z,8.90
2019-01-27T18:49:03.537Z,8.90
2019-01-27T18:51:06.416Z,8.90
2019-01-27T18:53:10.060Z,8.90
2019-01-27T18:55:27.835Z,8.90
2019-01-27T18:57:32.375Z,8.90
2019-01-27T18:59:50.175Z,8.80
2019-01-27T19:01:53.804Z,8.80
2019-01-27T19:04:11.400Z,8.80
2019-01-27T19:06:27.195Z,8.80
2019-01-27T19:08:37.745Z,8.70
2019-01-27T19:10:56.702Z,8.70
2019-01-27T19:13:03.296Z,8.50
2019-01-27T19:15:11.915Z,8.50
2019-01-27T19:17:20.435Z,8.50
2019-01-27T19:19:24.259Z,8.40
2019-01-27T19:21:29.951Z,8.30
2019-01-27T19:23:35.202Z,8.30
2019-01-27T19:25:54.630Z,8.20
2019-01-27T19:28:15.246Z,8.20
2019-01-27T19:30:19.331Z,8.00
2019-01-27T19:32:30.076Z,8.00
2019-01-27T19:34:49.744Z,7.90
2019-01-27T19:36:56.153Z,7.90
2019-01-27T19:39:16.915Z,7.90
2019-01-27T19:41:20.534Z,7.80
2019-01-27T19:43:27.364Z,7.70
2019-01-27T19:45:45.358Z,7.70
2019-01-27T19:48:07.847Z,7.60
2019-01-27T19:50:17.395Z,7.60
2019-01-27T19:52:26.205Z,7.60
2019-01-27T19:54:34.768Z,7.60
2019-01-27T19:56:38.468Z,7.60
2019-01-27T19:58:47.014Z,7.50
2019-01-27T20:00:57.702Z,7.50
2019-01-27T20:03:02.035Z,7.50
2019-01-27T20:05:19.897Z,7.50
2019-01-27T20:07:23.904Z,7.40
2019-01-27T20:09:30.717Z,7.40
2019-01-27T20:11:42.285Z,7.40
2019-01-27T20:13:49.183Z,7.30
2019-01-27T20:15:52.058Z,7.30
2019-01-27T20:17:59.916Z,7.30
2019-01-27T20:20:06.505Z,7.20
2019-01-27T20:22:29.811Z,7.20
2019-01-27T20:24:39.786Z,7.20
2019-01-27T20:26:48.708Z,7.20
2019-01-27T20:28:51.797Z,7.20
2019-01-27T20:30:56.618Z,7.20
2019-01-27T20:33:04.416Z,7.20
2019-01-27T20:35:13.113Z,7.20
2019-01-27T20:37:16.848Z,7.20
2019-01-27T20:39:24.751Z,7.10
2019-01-27T20:41:34.004Z,7.10
2019-01-27T20:43:40.747Z,6.90
2019-01-27T20:45:43.615Z,6.90
2019-01-27T20:47:47.005Z,6.80
2019-01-27T20:49:50.371Z,6.70
2019-01-27T20:51:55.148Z,6.70
2019-01-27T20:54:12.839Z,6.60
2019-01-27T20:56:18.189Z,6.40
2019-01-27T20:58:22.575Z,6.40
2019-01-27T21:00:36.325Z,6.40
2019-01-27T21:02:42.293Z,6.30
2019-01-27T21:04:50.191Z,6.20
2019-01-27T21:06:54.628Z,6.10
2019-01-27T21:08:57.527Z,6.10
2019-01-27T21:11:06.356Z,6.00
2019-01-27T21:13:11.336Z,6.00
2019-01-27T21:15:17.832Z,5.90
2019-01-27T21:17:21.076Z,5.90
2019-01-27T21:19:24.077Z,5.90
2019-01-27T21:21:27.020Z,5.90
2019-01-27T21:23:31.294Z,5.80
2019-01-27T21:25:34.879Z,5.80
2019-01-27T21:27:38.039Z,5.80
2019-01-27T21:29:41.195Z,5.80
2019-01-27T21:31:44.217Z,5.80
2019-01-27T21:33:48.488Z,5.90
2019-01-27T21:35:51.435Z,5.80
2019-01-27T21:37:54.627Z,5.90
2019-01-27T21:39:57.670Z,5.90
2019-01-27T21:42:00.647Z,5.90
2019-01-27T21:44:03.561Z,5.90
2019-01-27T21:46:07.223Z,5.90
2019-01-27T21:48:10.114Z,5.90
2019-01-27T21:50:14.498Z,5.90
2019-01-27T21:52:17.515Z,5.90
2019-01-27T21:54:20.421Z,5.90
2019-01-27T21:56:23.313Z,5.90
2019-01-27T21:58:26.355Z,5.90
2019-01-27T22:00:29.321Z,5.90
2019-01-27T22:02:32.204Z,5.90
2019-01-27T22:04:35.545Z,5.90
2019-01-27T22:06:39.496Z,5.80
2019-01-27T22:08:42.371Z,5.80
2019-01-27T22:10:45.281Z,5.80
2019-01-27T22:12:48.147Z,5.80
2019-01-27T22:14:51.044Z,5.80
2019-01-27T22:16:54.479Z,5.80
2019-01-27T22:18:57.363Z,5.80
2019-01-27T22:21:00.235Z,5.80
2019-01-27T22:23:03.262Z,5.80
2019-01-27T22:25:06.458Z,5.80
2019-01-27T22:27:09.355Z,5.80
2019-01-27T22:29:13.774Z,5.70
2019-01-27T22:31:17.419Z,5.70
2019-01-27T22:33:20.303Z,5.70
2019-01-27T22:35:23.283Z,5.70
2019-01-27T22:37:26.207Z,5.70
2019-01-27T22:39:29.081Z,5.70
2019-01-27T22:41:32.079Z,5.70
2019-01-27T22:43:34.955Z,5.70
2019-01-27T22:45:37.832Z,5.70
2019-01-27T22:47:40.875Z,5.70
2019-01-27T22:49:44.075Z,5.60
2019-01-27T22:51:46.999Z,5.60
2019-01-27T22:53:51.102Z,5.60
2019-01-27T22:55:53.962Z,5.60
2019-01-27T22:57:57.895Z,5.60
2019-01-27T23:00:00.956Z,5.60
2019-01-27T23:02:03.835Z,5.60
2019-01-27T23:04:06.699Z,5.60
2019-01-27T23:06:10.020Z,5.60
2019-01-27T23:08:12.895Z,5.60
2019-01-27T23:10:15.775Z,5.60
2019-01-27T23:12:19.181Z,5.60
2019-01-27T23:14:22.375Z,5.60
2019-01-27T23:16:26.081Z,5.70
2019-01-27T23:18:30.579Z,5.60
2019-01-27T23:20:33.448Z,5.60
2019-01-27T23:22:36.322Z,5.60
2019-01-27T23:24:39.333Z,5.70
2019-01-27T23:26:42.211Z,5.70
2019-01-27T23:28:45.074Z,5.60
2019-01-27T23:30:47.962Z,5.60
2019-01-27T23:32:50.845Z,5.60
2019-01-27T23:34:53.751Z,5.70
2019-01-27T23:36:57.947Z,5.60
2019-01-27T23:39:01.331Z,5.60
2019-01-27T23:41:05.011Z,5.60
2019-01-27T23:43:07.902Z,5.60
2019-01-27T23:45:10.767Z,5.60
2019-01-27T23:47:13.706Z,5.60
2019-01-27T23:49:17.377Z,5.60
2019-01-27T23:51:20.329Z,5.60
2019-01-27T23:53:23.239Z,5.60
2019-01-27T23:55:26.203Z,5.60
2019-01-27T23:57:29.075Z,5.60
2019-01-27T23:59:31.951Z,5.60
